Time;durP1;ratioP1;P1;durP2;ratioP2;P2;SDS_P1;SDS_P2;PMS_P1;PMS_P2;Temp;Humidity;BMP_temperature;BMP_pressure;BME280_temperature;BME280_humidity;BME280_pressure;Samples;Min_cycle;Max_cycle;Signal;HPM_P1;HPM_P2
2022/03/31 00:01:45;;;;;;;14.30;10.10;;;;;;;1.75;63.01;98999.20;106462;1270;96492;-73
2022/03/31 00:04:17;;;;;;;17.20;9.90;;;;;;;1.74;63.19;99001.45;106305;1269;138589;-72
2022/03/31 00:06:49;;;;;;;15.10;8.90;;;;;;;1.68;63.29;98998.65;106266;1271;109689;-73
2022/03/31 00:09:21;;;;;;;12.20;8.80;;;;;;;1.65;63.14;99001.27;106359;1270;108721;-73
2022/03/31 00:11:53;;;;;;;16.60;8.60;;;;;;;1.60;63.20;99002.35;106251;1269;138958;-74
2022/03/31 00:14:25;;;;;;;11.30;8.20;;;;;;;1.58;63.34;99007.00;106331;1270;96479;-72
2022/03/31 00:16:57;;;;;;;11.60;8.60;;;;;;;1.58;63.30;99006.67;106234;1270;137424;-72
2022/03/31 00:19:29;;;;;;;13.90;9.20;;;;;;;1.54;63.48;99008.46;106416;1269;111533;-72
2022/03/31 00:22:01;;;;;;;15.30;9.10;;;;;;;1.51;63.52;99001.65;106326;1270;106367;-73
2022/03/31 00:24:33;;;;;;;13.50;9.20;;;;;;;1.49;63.62;98998.44;106275;1268;137209;-73
2022/03/31 00:27:05;;;;;;;13.20;9.70;;;;;;;1.44;63.61;98990.29;106365;1270;96473;-73
2022/03/31 00:29:37;;;;;;;15.30;8.70;;;;;;;1.38;63.94;98987.98;106330;1270;137405;-73
2022/03/31 00:32:10;;;;;;;11.60;8.00;;;;;;;1.27;63.83;98984.03;106388;1270;111274;-73
2022/03/31 00:34:42;;;;;;;11.20;8.30;;;;;;;1.24;63.80;98983.91;106278;1271;138367;-73
2022/03/31 00:37:14;;;;;;;11.60;8.10;;;;;;;1.24;64.06;98982.03;106266;1270;108388;-73
2022/03/31 00:39:47;;;;;;;10.40;7.20;;;;;;;1.25;64.05;98981.15;106354;1270;96573;-73
2022/03/31 00:42:18;;;;;;;10.30;8.00;;;;;;;1.29;64.28;98982.32;106276;1270;138142;-73
2022/03/31 00:44:51;;;;;;;14.90;8.40;;;;;;;1.29;64.19;98985.56;106458;1268;110964;-73
2022/03/31 00:47:23;;;;;;;12.90;7.70;;;;;;;1.29;64.13;98984.36;106263;1270;137437;-73
2022/03/31 00:49:55;;;;;;;13.30;8.40;;;;;;;1.29;63.97;98984.02;106426;1270;108730;-73
2022/03/31 00:52:27;;;;;;;13.10;8.30;;;;;;;1.26;64.04;98979.44;106311;1270;137985;-73
2022/03/31 00:54:59;;;;;;;12.30;8.30;;;;;;;1.25;64.16;98979.27;106434;1270;96540;-73
2022/03/31 00:57:32;;;;;;;14.20;9.20;;;;;;;1.25;64.04;98977.20;106392;1270;110993;-74
2022/03/31 01:00:07;;;;;;;11.10;7.90;;;;;;;1.23;64.27;98975.36;106293;1270;137333;-72
2022/03/31 01:02:39;;;;;;;13.60;8.20;;;;;;;1.19;64.31;98973.54;107901;1269;109225;-73
2022/03/31 01:05:14;;;;;;;10.90;7.80;;;;;;;1.16;64.14;98970.33;106528;1270;138487;-74
2022/03/31 01:07:46;;;;;;;15.00;8.20;;;;;;;1.16;64.32;98972.05;106329;1270;96603;-73
2022/03/31 01:10:18;;;;;;;10.70;7.20;;;;;;;1.17;64.39;98970.83;106336;1269;138185;-73
2022/03/31 01:12:50;;;;;;;15.20;8.70;;;;;;;1.21;64.54;98966.31;106404;1270;108759;-73
2022/03/31 01:15:22;;;;;;;10.00;7.20;;;;;;;1.27;64.68;98965.39;106353;1270;107291;-73
2022/03/31 01:17:54;;;;;;;12.50;8.60;;;;;;;1.30;64.45;98962.95;106227;1269;137488;-72
2022/03/31 01:20:26;;;;;;;13.20;7.80;;;;;;;1.29;64.16;98962.95;106461;1270;96375;-74
2022/03/31 01:23:00;;;;;;;12.70;7.50;;;;;;;1.22;63.92;98957.91;106252;1269;137324;-72
2022/03/31 01:25:33;;;;;;;10.00;7.70;;;;;;;1.18;64.08;98958.48;106448;1270;108691;-72
2022/03/31 01:28:06;;;;;;;11.00;8.40;;;;;;;1.17;64.29;98959.20;106351;1271;108864;-73
2022/03/31 01:30:38;;;;;;;12.30;8.00;;;;;;;1.13;64.38;98954.12;106272;1269;137351;-73
2022/03/31 01:33:11;;;;;;;13.40;8.20;;;;;;;1.09;64.36;98953.16;106339;1271;96486;-74
2022/03/31 01:35:43;;;;;;;10.60;7.00;;;;;;;1.04;64.46;98953.20;106531;1271;137852;-72
2022/03/31 01:38:15;;;;;;;11.30;7.60;;;;;;;1.04;64.42;98955.43;106331;1270;109126;-73
2022/03/31 01:40:47;;;;;;;11.60;7.10;;;;;;;1.03;64.47;98957.84;106268;1270;139448;-72
2022/03/31 01:43:21;;;;;;;12.50;6.90;;;;;;;1.04;64.48;98957.81;106312;1270;96478;-71
2022/03/31 01:45:53;;;;;;;10.00;6.40;;;;;;;1.07;64.52;98962.23;107929;1269;94560;-73
2022/03/31 01:48:25;;;;;;;14.50;7.20;;;;;;;1.07;64.30;98956.42;107789;1269;137129;-73
2022/03/31 01:50:57;;;;;;;8.60;6.60;;;;;;;1.03;64.39;98954.76;106880;1270;107810;-73
2022/03/31 01:53:29;;;;;;;14.70;7.40;;;;;;;1.00;64.51;98950.70;106264;1270;138996;-73
2022/03/31 01:56:01;;;;;;;12.90;7.40;;;;;;;1.03;64.58;98955.11;106354;1270;96484;-73
2022/03/31 01:58:34;;;;;;;11.30;7.30;;;;;;;1.07;64.59;98958.30;106257;1271;138925;-73
2022/03/31 02:01:06;;;;;;;13.80;8.10;;;;;;;1.07;64.32;98954.88;106336;1270;111017;-73
2022/03/31 02:03:38;;;;;;;9.20;6.90;;;;;;;1.07;64.45;98955.21;106455;1270;108285;-72
2022/03/31 02:06:10;;;;;;;9.20;6.80;;;;;;;1.02;64.44;98952.39;106284;1270;138312;-73
2022/03/31 02:08:43;;;;;;;11.20;7.20;;;;;;;1.00;64.43;98954.63;106342;1270;96474;-72
2022/03/31 02:11:15;;;;;;;7.60;5.90;;;;;;;0.96;64.33;98957.96;106212;1270;138113;-72
2022/03/31 02:13:48;;;;;;;12.70;6.40;;;;;;;0.92;64.27;98957.85;106415;1269;111174;-72
2022/03/31 02:16:19;;;;;;;8.40;6.00;;;;;;;0.95;64.59;98961.23;106278;1270;138632;-72
2022/03/31 02:18:51;;;;;;;10.20;6.60;;;;;;;1.01;64.68;98961.64;106410;1270;108938;-72
2022/03/31 02:21:23;;;;;;;9.80;6.40;;;;;;;1.05;64.40;98960.55;106377;1270;96495;-73
2022/03/31 02:23:56;;;;;;;9.90;6.10;;;;;;;1.06;64.29;98961.05;106302;1270;137141;-72
2022/03/31 02:26:28;;;;;;;10.70;6.90;;;;;;;1.03;64.02;98958.19;106357;1270;111325;-74
2022/03/31 02:28:59;;;;;;;9.80;6.80;;;;;;;0.99;64.36;98957.73;106208;1271;137502;-72
2022/03/31 02:31:32;;;;;;;12.50;7.70;;;;;;;0.97;64.24;98956.58;106421;1270;108170;-72
2022/03/31 02:34:05;;;;;;;11.50;6.60;;;;;;;0.94;64.22;98953.02;106348;1270;96593;-72
2022/03/31 02:36:37;;;;;;;12.50;6.90;;;;;;;0.90;64.48;98953.08;107714;1269;137194;-72
2022/03/31 02:39:09;;;;;;;13.40;6.70;;;;;;;0.89;64.64;98953.59;106753;1270;109848;-72
2022/03/31 02:41:42;;;;;;;10.30;6.00;;;;;;;0.88;64.76;98956.50;106294;1269;139737;-72
2022/03/31 02:44:15;;;;;;;10.00;6.70;;;;;;;0.84;64.47;98953.66;106452;1270;106357;-72
2022/03/31 02:46:47;;;;;;;8.90;5.80;;;;;;;0.80;64.87;98954.23;106889;1270;138495;-72
2022/03/31 02:49:20;;;;;;;9.70;6.00;;;;;;;0.81;64.81;98956.45;106418;1270;96504;-72
2022/03/31 02:51:53;;;;;;;9.40;5.70;;;;;;;0.84;64.72;98957.60;107730;1269;110084;-73
2022/03/31 02:57:14;;;;;;;9.30;5.70;;;;;;;0.83;64.70;98960.34;106342;1271;108955;-73
2022/03/31 02:59:47;;;;;;;13.80;6.60;;;;;;;0.85;64.86;98963.23;106325;1270;138137;-73
2022/03/31 03:02:19;;;;;;;10.30;5.80;;;;;;;0.85;64.60;98963.40;106420;1270;96500;-73
2022/03/31 03:04:51;;;;;;;11.80;6.30;;;;;;;0.84;64.67;98964.61;106429;1270;139286;-72
2022/03/31 03:07:23;;;;;;;8.80;6.50;;;;;;;0.86;64.71;98964.92;106486;1270;109279;-73
2022/03/31 03:09:54;;;;;;;10.70;6.30;;;;;;;0.87;64.67;98965.42;107899;1269;108432;-72
2022/03/31 03:12:26;;;;;;;12.10;6.30;;;;;;;0.88;64.53;98959.76;107205;1268;137413;-73
2022/03/31 03:14:58;;;;;;;11.90;7.00;;;;;;;0.87;64.80;98960.64;106319;1271;96473;-73
2022/03/31 03:17:30;;;;;;;10.00;6.70;;;;;;;0.88;64.73;98962.67;106213;1268;138729;-72
2022/03/31 03:20:02;;;;;;;10.40;6.50;;;;;;;0.86;64.98;98959.80;106392;1270;108877;-73
2022/03/31 03:22:34;;;;;;;10.10;6.50;;;;;;;0.84;64.65;98954.69;106221;1271;139227;-72
2022/03/31 03:25:09;;;;;;;11.00;6.90;;;;;;;0.89;64.88;98957.52;106371;1270;96896;-73
2022/03/31 03:27:41;;;;;;;10.90;6.80;;;;;;;0.89;64.48;98957.70;106425;1270;96507;-72
2022/03/31 03:30:15;;;;;;;10.10;6.80;;;;;;;0.87;64.54;98952.25;106211;1271;138244;-73
2022/03/31 03:32:47;;;;;;;14.20;8.00;;;;;;;0.82;64.39;98955.07;106465;1270;109211;-73
2022/03/31 03:35:19;;;;;;;12.10;7.30;;;;;;;0.70;64.62;98951.80;106289;1270;139166;-73
2022/03/31 03:37:51;;;;;;;10.50;6.70;;;;;;;0.63;64.70;98955.83;106361;1270;96503;-73
2022/03/31 03:40:25;;;;;;;11.00;6.00;;;;;;;0.59;64.96;98958.80;106344;1270;137716;-73
2022/03/31 03:42:56;;;;;;;11.80;6.40;;;;;;;0.59;64.74;98955.71;106878;1269;109863;-73
2022/03/31 03:45:28;;;;;;;11.50;6.50;;;;;;;0.56;65.01;98955.41;106480;1270;108922;-71
2022/03/31 03:48:01;;;;;;;11.80;6.40;;;;;;;0.54;65.00;98955.95;106283;1270;138540;-73
2022/03/31 03:50:33;;;;;;;13.40;6.50;;;;;;;0.53;64.70;98958.67;107264;1271;95238;-72
2022/03/31 03:53:05;;;;;;;10.40;6.10;;;;;;;0.51;64.89;98958.52;107807;1269;137953;-73
2022/03/31 03:55:39;;;;;;;9.70;5.80;;;;;;;0.51;64.94;98960.58;107870;1269;111362;-73
2022/03/31 03:58:11;;;;;;;8.70;6.10;;;;;;;0.51;64.66;98965.55;107848;1270;108863;-73
2022/03/31 04:00:44;;;;;;;9.60;5.90;;;;;;;0.54;64.76;98968.59;107768;1269;137563;-73
2022/03/31 04:03:16;;;;;;;10.90;6.00;;;;;;;0.59;64.99;98968.36;107877;1270;94741;-73
2022/03/31 04:05:50;;;;;;;11.10;6.00;;;;;;;0.63;64.54;98965.59;107756;1271;138570;-74
2022/03/31 04:08:23;;;;;;;10.20;6.00;;;;;;;0.61;64.53;98968.17;107017;1270;111018;-73
2022/03/31 04:10:56;;;;;;;10.50;6.50;;;;;;;0.61;64.72;98968.69;106257;1270;137516;-72
2022/03/31 04:13:27;;;;;;;10.10;6.10;;;;;;;0.63;64.52;98968.48;106368;1270;108952;-72
2022/03/31 04:16:00;;;;;;;14.10;6.70;;;;;;;0.63;64.34;98970.55;106407;1270;97832;-72
2022/03/31 04:18:33;;;;;;;10.00;6.70;;;;;;;0.59;64.37;98975.89;106266;1270;137809;-74
2022/03/31 04:21:05;;;;;;;11.60;6.90;;;;;;;0.57;64.30;98975.23;106289;1270;112726;-71
2022/03/31 04:23:37;;;;;;;11.70;6.70;;;;;;;0.55;64.30;98975.09;106989;1267;139145;-73
2022/03/31 04:26:09;;;;;;;10.60;6.40;;;;;;;0.52;64.12;98973.73;107936;1269;108758;-73
2022/03/31 04:28:41;;;;;;;15.10;6.70;;;;;;;0.48;64.29;98982.52;107738;1270;138123;-73
2022/03/31 04:31:13;;;;;;;13.10;6.20;;;;;;;0.48;64.29;98984.23;107917;1269;96178;-72
2022/03/31 04:33:45;;;;;;;10.70;6.50;;;;;;;0.49;64.42;98983.19;107886;1270;111480;-73
2022/03/31 04:36:17;;;;;;;9.80;6.00;;;;;;;0.50;64.23;98990.17;107798;1269;140477;-74
2022/03/31 04:38:49;;;;;;;10.10;6.40;;;;;;;0.57;64.34;98994.58;106774;1270;106763;-73
2022/03/31 04:41:22;;;;;;;8.80;6.60;;;;;;;0.64;64.04;98995.52;106207;1270;137738;-72
2022/03/31 04:43:53;;;;;;;9.80;7.00;;;;;;;0.68;64.14;98994.08;106340;1270;97805;-74
2022/03/31 04:46:25;;;;;;;13.30;7.20;;;;;;;0.69;63.80;98987.91;106306;1270;139116;-73
2022/03/31 04:48:58;;;;;;;11.20;7.30;;;;;;;0.68;63.82;98984.15;106412;1270;107165;-73
2022/03/31 04:51:30;;;;;;;11.10;7.10;;;;;;;0.65;63.89;98988.81;106355;1270;106006;-72
2022/03/31 04:54:02;;;;;;;12.00;7.30;;;;;;;0.62;63.81;98993.98;106214;1272;138137;-72
2022/03/31 04:56:34;;;;;;;12.30;7.30;;;;;;;0.59;63.72;98996.23;106371;1269;97789;-72
2022/03/31 04:59:06;;;;;;;11.40;6.80;;;;;;;0.62;63.67;98994.33;106217;1267;137393;-71
2022/03/31 05:01:38;;;;;;;11.50;7.00;;;;;;;0.66;63.84;98992.39;106403;1271;108390;-73
2022/03/31 05:04:12;;;;;;;11.30;7.50;;;;;;;0.70;63.71;98993.36;106412;1270;108108;-73
2022/03/31 05:06:45;;;;;;;11.00;6.70;;;;;;;0.71;63.68;98997.80;107724;1270;138405;-73
2022/03/31 05:09:17;;;;;;;11.90;6.90;;;;;;;0.70;63.60;98996.60;107828;1271;96389;-72
2022/03/31 05:11:49;;;;;;;12.70;7.00;;;;;;;0.72;63.44;98997.45;107784;1268;140032;-74
2022/03/31 05:14:21;;;;;;;11.30;6.70;;;;;;;0.72;63.47;98999.16;107928;1269;107759;-72
2022/03/31 05:16:53;;;;;;;13.70;7.40;;;;;;;0.75;63.53;99007.19;107725;1270;137789;-73
2022/03/31 05:19:25;;;;;;;10.60;6.60;;;;;;;0.79;63.28;99013.46;107222;1270;97908;-73
2022/03/31 05:21:57;;;;;;;11.10;7.20;;;;;;;0.85;63.19;99015.77;106466;1270;97691;-72
2022/03/31 05:24:29;;;;;;;10.90;7.20;;;;;;;0.90;63.17;99018.95;106284;1269;137630;-72
2022/03/31 05:27:01;;;;;;;13.50;7.10;;;;;;;0.95;63.22;99018.57;106417;1270;109435;-73
2022/03/31 05:29:34;;;;;;;12.50;7.80;;;;;;;1.00;63.06;99018.83;106279;1270;138785;-72
2022/03/31 05:32:08;;;;;;;12.60;7.70;;;;;;;1.03;62.83;99020.14;106384;1270;98501;-73
2022/03/31 05:34:40;;;;;;;13.30;6.60;;;;;;;1.07;62.84;99014.96;107632;1271;138398;-71
2022/03/31 05:37:12;;;;;;;12.50;7.10;;;;;;;1.10;62.91;99014.09;107785;1270;110345;-72
2022/03/31 05:39:45;;;;;;;14.00;7.80;;;;;;;1.10;62.63;99015.80;107784;1270;107813;-73
2022/03/31 05:42:17;;;;;;;14.90;6.70;;;;;;;1.10;62.64;99016.47;107537;1270;138102;-74
2022/03/31 05:44:49;;;;;;;11.60;6.90;;;;;;;1.12;62.73;99021.74;107009;1270;97947;-72
2022/03/31 05:47:21;;;;;;;11.80;7.20;;;;;;;1.17;62.61;99024.25;106188;1270;137420;-74
2022/03/31 05:49:53;;;;;;;11.90;7.40;;;;;;;1.19;62.16;99030.21;106330;1270;112356;-74
2022/03/31 05:52:25;;;;;;;11.70;6.70;;;;;;;1.17;62.34;99031.60;106208;1270;138315;-75
2022/03/31 05:54:57;;;;;;;10.40;6.50;;;;;;;1.16;62.30;99035.89;106271;1269;107058;-74
2022/03/31 05:57:29;;;;;;;11.30;6.20;;;;;;;1.17;62.35;99041.02;106341;1270;97811;-72
2022/03/31 06:00:01;;;;;;;9.60;6.40;;;;;;;1.23;62.30;99040.08;107082;1270;139108;-73
2022/03/31 06:02:42;;;;;;;11.10;7.20;;;;;;;1.28;62.30;99043.96;106857;1270;111095;-71
2022/03/31 06:05:21;;;;;;;13.60;6.40;;;;;;;1.34;62.08;99045.92;106024;1271;138142;-71
2022/03/31 06:07:53;;;;;;;9.70;6.70;;;;;;;1.46;62.01;99049.70;107827;1269;108960;-74
2022/03/31 06:10:25;;;;;;;18.60;7.40;;;;;;;1.58;62.02;99046.09;107650;1270;138460;-72
2022/03/31 06:12:57;;;;;;;10.70;7.30;;;;;;;1.67;61.62;99049.55;107852;1268;95802;-72
2022/03/31 06:15:30;;;;;;;15.30;8.10;;;;;;;1.74;61.56;99050.11;107836;1270;112428;-72
2022/03/31 06:18:02;;;;;;;11.50;7.40;;;;;;;1.86;61.55;99053.03;107763;1269;137539;-73
2022/03/31 06:20:35;;;;;;;14.00;7.80;;;;;;;1.98;61.39;99051.63;106721;1270;107631;-72
2022/03/31 06:23:07;;;;;;;11.60;7.30;;;;;;;2.09;61.26;99049.72;106247;1270;137728;-72
2022/03/31 06:25:40;;;;;;;14.10;7.50;;;;;;;2.23;61.22;99055.98;106407;1270;97850;-72
2022/03/31 06:28:13;;;;;;;12.60;7.10;;;;;;;2.39;60.75;99058.27;106266;1270;111114;-72
2022/03/31 06:30:46;;;;;;;16.60;7.60;;;;;;;2.54;60.43;99059.56;107748;1269;137321;-73
2022/03/31 06:33:19;;;;;;;14.60;7.70;;;;;;;2.68;60.16;99064.42;107697;1270;109648;-73
2022/03/31 06:35:51;;;;;;;16.50;7.80;;;;;;;2.80;59.82;99069.52;107680;1270;137434;-73
2022/03/31 06:38:23;;;;;;;13.90;6.80;;;;;;;2.86;59.66;99074.88;107117;1270;96438;-73
2022/03/31 06:41:10;;;;;;;9.10;6.90;;;;;;;2.93;59.25;99075.27;106219;1270;137768;-72
2022/03/31 06:43:44;;;;;;;14.00;7.20;;;;;;;3.06;59.06;99067.27;106388;1270;108507;-74
2022/03/31 06:46:17;;;;;;;15.80;7.90;;;;;;;3.25;58.77;99067.05;106348;1270;108884;-73
2022/03/31 06:48:50;;;;;;;12.00;6.80;;;;;;;3.51;58.47;99059.08;106192;1270;137894;-74
2022/03/31 06:51:22;;;;;;;10.20;6.60;;;;;;;3.91;57.87;99058.14;106445;1268;97820;-73
2022/03/31 06:53:54;;;;;;;13.10;6.70;;;;;;;4.41;57.32;99053.80;106244;1270;137398;-73
2022/03/31 06:56:34;;;;;;;12.40;6.70;;;;;;;4.86;56.67;99050.14;106342;1270;106990;-73
2022/03/31 06:59:06;;;;;;;8.40;6.10;;;;;;;5.29;55.98;99050.44;106120;1270;138527;-73
2022/03/31 07:01:38;;;;;;;11.00;8.10;;;;;;;5.66;54.85;99050.68;106333;1270;97834;-73
2022/03/31 07:04:11;;;;;;;9.70;5.90;;;;;;;5.91;54.12;99055.79;106319;1270;97809;-72
2022/03/31 07:06:43;;;;;;;9.60;6.10;;;;;;;5.89;53.40;99055.69;106209;1270;137049;-73
2022/03/31 07:09:15;;;;;;;8.90;5.60;;;;;;;5.77;53.01;99061.05;106322;1270;107058;-74
2022/03/31 07:11:47;;;;;;;12.20;6.00;;;;;;;5.68;52.71;99060.64;106291;1270;137375;-76
2022/03/31 07:14:20;;;;;;;9.60;6.30;;;;;;;5.66;53.01;99059.35;106357;1270;98610;-75
2022/03/31 07:16:52;;;;;;;10.20;5.80;;;;;;;5.70;52.67;99062.98;106140;1270;137583;-73
2022/03/31 07:19:24;;;;;;;15.60;6.30;;;;;;;5.67;52.92;99062.73;106339;1270;113071;-74
2022/03/31 07:21:56;;;;;;;10.10;6.10;;;;;;;5.52;52.50;99062.52;106311;1270;108441;-71
2022/03/31 07:24:28;;;;;;;11.20;6.30;;;;;;;5.37;52.81;99059.87;106175;1271;137955;-72
2022/03/31 07:27:01;;;;;;;10.10;6.20;;;;;;;5.27;52.68;99056.39;106374;1269;97842;-71
2022/03/31 07:29:33;;;;;;;11.40;5.80;;;;;;;5.17;52.73;99055.27;106282;1270;137507;-71
2022/03/31 07:32:07;;;;;;;11.70;5.70;;;;;;;5.11;52.76;99053.21;106346;1270;112009;-72
2022/03/31 07:34:39;;;;;;;8.70;5.70;;;;;;;5.04;52.78;99054.14;107120;1271;137773;-72
2022/03/31 07:37:11;;;;;;;13.30;6.30;;;;;;;5.05;52.90;99053.77;106498;1270;107780;-72
2022/03/31 07:39:45;;;;;;;10.70;6.50;;;;;;;5.09;52.80;99053.46;106405;1270;97825;-72
2022/03/31 07:42:18;;;;;;;11.30;5.70;;;;;;;5.14;53.02;99052.27;106288;1268;137369;-72
2022/03/31 07:44:50;;;;;;;11.20;6.40;;;;;;;5.29;53.16;99059.41;106353;1270;111747;-72
2022/03/31 07:47:22;;;;;;;11.80;6.10;;;;;;;5.44;53.11;99060.88;106251;1270;137699;-72
2022/03/31 07:49:55;;;;;;;10.50;6.10;;;;;;;5.58;52.35;99059.95;106246;1270;108380;-72
2022/03/31 07:52:27;;;;;;;10.80;5.40;;;;;;;5.65;52.06;99062.64;106093;1270;136798;-71
2022/03/31 07:55:16;;;;;;;9.70;5.90;;;;;;;5.59;51.43;99062.51;106276;1270;97861;-73
2022/03/31 07:57:49;;;;;;;18.00;6.00;;;;;;;5.46;51.44;99061.33;106318;1271;111022;-73
2022/03/31 08:00:23;;;;;;;11.40;6.10;;;;;;;5.50;51.63;99063.09;106318;1270;137722;-73
2022/03/31 08:02:55;;;;;;;11.90;6.30;;;;;;;5.56;51.47;99068.42;106165;1270;107747;-73
2022/03/31 08:05:29;;;;;;;7.70;5.40;;;;;;;5.62;51.29;99067.55;106171;1270;137878;-71
2022/03/31 08:08:01;;;;;;;11.40;5.30;;;;;;;5.76;51.51;99066.41;107721;1270;95692;-71
2022/03/31 08:10:34;;;;;;;11.40;5.90;;;;;;;6.03;51.59;99070.43;106245;1271;137478;-72
2022/03/31 08:13:10;;;;;;;8.00;5.20;;;;;;;6.35;51.15;99070.55;106383;1270;108594;-71
2022/03/31 08:15:44;;;;;;;13.50;5.30;;;;;;;6.67;50.55;99071.55;106437;1270;108749;-73
2022/03/31 08:18:16;;;;;;;12.60;5.10;;;;;;;7.03;50.37;99070.43;106130;1269;137540;-73
2022/03/31 08:20:48;;;;;;;10.50;4.90;;;;;;;7.27;49.46;99072.31;106384;1271;98299;-72
2022/03/31 08:23:21;;;;;;;7.50;5.30;;;;;;;7.39;48.87;99076.54;106177;1271;137499;-72
2022/03/31 08:25:53;;;;;;;9.50;4.80;;;;;;;7.39;48.59;99079.64;106220;1270;107568;-72
2022/03/31 08:28:29;;;;;;;9.10;4.60;;;;;;;7.39;48.26;99077.74;106231;1270;108176;-72
2022/03/31 08:31:01;;;;;;;11.50;4.80;;;;;;;7.34;47.71;99076.87;106194;1270;138257;-71
2022/03/31 08:33:33;;;;;;;11.40;5.20;;;;;;;7.24;47.35;99080.88;106389;1270;97809;-71
2022/03/31 08:36:06;;;;;;;7.10;4.80;;;;;;;7.13;47.10;99082.33;106278;1270;137829;-72
2022/03/31 08:38:38;;;;;;;10.50;5.30;;;;;;;6.96;46.78;99089.87;106598;1270;108605;-72
2022/03/31 08:41:11;;;;;;;5.50;4.50;;;;;;;6.79;46.95;99097.05;106101;1271;138632;-72
2022/03/31 08:43:45;;;;;;;7.00;4.60;;;;;;;6.66;47.18;99100.60;106251;1270;97795;-73
2022/03/31 08:46:20;;;;;;;9.40;4.80;;;;;;;6.55;46.88;99099.41;107805;1270;96571;-72
2022/03/31 08:48:52;;;;;;;8.10;5.00;;;;;;;6.46;46.67;99087.13;107722;1270;137133;-73
2022/03/31 08:51:24;;;;;;;8.70;4.40;;;;;;;6.46;46.95;99075.38;107852;1270;107690;-72
2022/03/31 08:53:57;;;;;;;8.30;5.00;;;;;;;6.46;46.45;99071.92;107729;1270;137375;-72
2022/03/31 08:56:29;;;;;;;8.60;5.00;;;;;;;6.43;47.26;99076.15;107734;1270;96117;-73
2022/03/31 08:59:21;;;;;;;7.10;5.00;;;;;;;6.46;46.68;99068.65;106155;1271;137622;-72
2022/03/31 09:01:53;;;;;;;7.20;4.50;;;;;;;6.44;46.77;99075.95;106861;1270;113147;-72
2022/03/31 09:04:26;;;;;;;12.40;5.00;;;;;;;6.40;46.66;99081.11;106677;1271;109325;-73
2022/03/31 09:07:10;;;;;;;8.50;4.70;;;;;;;6.38;46.94;99088.42;106244;1271;137314;-73
2022/03/31 09:09:50;;;;;;;9.50;4.90;;;;;;;6.37;46.70;99087.60;107885;1269;96135;-73
2022/03/31 09:12:26;;;;;;;9.40;5.40;;;;;;;6.30;46.70;99078.88;107749;1268;137241;-73
2022/03/31 09:15:18;;;;;;;11.10;5.10;;;;;;;6.28;46.70;99079.42;107857;1270;112153;-73
2022/03/31 09:17:55;;;;;;;6.90;4.50;;;;;;;6.30;46.74;99076.45;106940;1271;137764;-72
2022/03/31 09:20:37;;;;;;;7.30;4.80;;;;;;;6.38;46.67;99074.45;107749;1270;108829;-73
2022/03/31 09:23:17;;;;;;;8.00;4.80;;;;;;;6.47;46.63;99070.00;107692;1268;137429;-73
2022/03/31 09:25:51;;;;;;;9.30;4.80;;;;;;;6.56;46.39;99078.64;107818;1270;97136;-74
2022/03/31 09:28:25;;;;;;;6.10;4.80;;;;;;;6.63;46.22;99079.79;107770;1271;112507;-73
2022/03/31 09:30:58;;;;;;;9.40;4.60;;;;;;;6.65;46.21;99084.41;107768;1270;137231;-73
2022/03/31 09:33:36;;;;;;;9.40;5.20;;;;;;;6.68;46.00;99086.56;107326;1270;108053;-72
2022/03/31 09:36:13;;;;;;;6.70;4.60;;;;;;;6.66;45.89;99084.55;106223;1271;137447;-74
2022/03/31 09:38:58;;;;;;;8.10;4.80;;;;;;;6.62;45.28;99082.94;107759;1270;138652;-72
2022/03/31 09:41:31;;;;;;;7.80;5.20;;;;;;;6.57;45.42;99089.13;107766;1270;138474;-73
2022/03/31 09:44:05;;;;;;;12.60;5.50;;;;;;;6.55;45.02;99089.39;107848;1270;108876;-73
2022/03/31 09:46:39;;;;;;;9.10;4.60;;;;;;;6.45;44.92;99089.23;107062;1270;137721;-71
2022/03/31 09:49:16;;;;;;;9.50;4.90;;;;;;;6.34;45.27;99089.24;107726;1270;96466;-73
2022/03/31 09:51:50;;;;;;;8.30;4.80;;;;;;;6.30;45.33;99084.91;106690;1271;97844;-73
2022/03/31 09:54:25;;;;;;;10.50;4.70;;;;;;;6.27;45.55;99081.18;105872;1271;137090;-72
2022/03/31 09:57:00;;;;;;;8.60;4.50;;;;;;;6.29;45.57;99077.86;107549;1271;108907;-73
2022/03/31 09:59:34;;;;;;;10.70;4.70;;;;;;;6.34;45.44;99085.45;107438;1271;137612;-73
2022/03/31 10:02:06;;;;;;;7.30;4.90;;;;;;;6.36;45.30;99088.67;107770;1271;96145;-73
2022/03/31 10:04:39;;;;;;;7.70;4.80;;;;;;;6.37;45.25;99086.58;107387;1271;137283;-73
2022/03/31 10:07:12;;;;;;;10.30;5.00;;;;;;;6.37;45.12;99081.73;107385;1271;113698;-73
2022/03/31 10:09:47;;;;;;;8.80;4.80;;;;;;;6.36;45.34;99086.44;107359;1270;107878;-73
2022/03/31 10:12:27;;;;;;;8.80;4.80;;;;;;;6.37;44.93;99087.94;105691;1270;137531;-73
2022/03/31 10:15:03;;;;;;;10.30;5.30;;;;;;;6.35;45.04;99088.70;105898;1270;97828;-74
2022/03/31 10:17:36;;;;;;;8.40;5.10;;;;;;;6.38;45.22;99085.67;105814;1270;138351;-72
2022/03/31 10:20:15;;;;;;;7.70;5.10;;;;;;;6.45;45.16;99081.64;105761;1271;112610;-72
2022/03/31 10:25:50;;;;;;;10.80;5.50;;;;;;;6.35;44.96;99074.55;105903;1271;109189;-74
2022/03/31 10:28:23;;;;;;;8.00;5.20;;;;;;;6.36;44.96;99080.55;105760;1270;97995;-73
2022/03/31 10:30:57;;;;;;;7.00;5.10;;;;;;;6.39;44.75;99077.69;105837;1271;137138;-73
2022/03/31 10:33:37;;;;;;;8.40;5.10;;;;;;;6.38;44.62;99072.21;105905;1271;111517;-73
2022/03/31 10:36:12;;;;;;;9.60;5.40;;;;;;;6.36;44.88;99072.96;105681;1271;137468;-72
2022/03/31 10:38:56;;;;;;;8.50;5.40;;;;;;;6.35;45.04;99076.45;107268;1269;109283;-72
2022/03/31 10:41:33;;;;;;;12.20;4.90;;;;;;;6.34;45.06;99076.32;105717;1271;137461;-73
2022/03/31 10:44:05;;;;;;;;;;;;;;;6.34;44.72;99074.92;107579;1271;96172;-73
2022/03/31 10:46:37;;;;;;;9.50;4.90;;;;;;;6.30;44.51;99076.27;106124;1271;111411;-73
2022/03/31 10:49:17;;;;;;;10.60;5.90;;;;;;;6.31;44.75;99082.63;106190;1270;139023;-71
2022/03/31 10:51:49;;;;;;;10.20;5.00;;;;;;;6.33;44.82;99079.27;107426;1271;108699;-73
2022/03/31 10:54:29;;;;;;;9.50;5.30;;;;;;;6.34;44.25;99076.47;107328;1270;139988;-74
2022/03/31 10:57:11;;;;;;;6.00;4.90;;;;;;;6.33;44.02;99070.13;107516;1270;96214;-75
2022/03/31 10:59:45;;;;;;;10.10;5.10;;;;;;;6.26;43.26;99072.27;107467;1270;137217;-76
2022/03/31 11:02:19;;;;;;;8.30;5.10;;;;;;;6.18;43.38;99069.77;107590;1270;107878;-76
2022/03/31 11:04:58;;;;;;;6.70;4.90;;;;;;;6.19;43.58;99075.42;107299;1270;137552;-76
2022/03/31 11:07:30;;;;;;;6.10;4.50;;;;;;;6.20;43.25;99073.84;107515;1270;95938;-75
2022/03/31 11:10:05;;;;;;;8.90;5.00;;;;;;;6.19;43.03;99073.55;107465;1271;96394;-74
2022/03/31 11:12:38;;;;;;;7.10;5.00;;;;;;;6.11;42.63;99071.38;107419;1268;137858;-74
2022/03/31 11:15:13;;;;;;;11.80;5.40;;;;;;;5.98;42.58;99070.77;107538;1270;107881;-75
2022/03/31 11:17:45;;;;;;;8.70;5.10;;;;;;;5.92;43.15;99074.55;107248;1269;233034;-75
2022/03/31 11:20:20;;;;;;;9.70;4.90;;;;;;;5.91;43.07;99074.77;107476;1270;96103;-76
2022/03/31 11:22:54;;;;;;;9.40;4.80;;;;;;;5.96;43.03;99071.70;107351;1269;138068;-74
2022/03/31 11:25:26;;;;;;;8.70;5.00;;;;;;;6.07;43.14;99061.32;107453;1269;111469;-72
2022/03/31 11:28:07;;;;;;;8.50;4.70;;;;;;;6.22;42.28;99053.56;107601;1270;110779;-74
2022/03/31 11:30:40;;;;;;;6.20;4.80;;;;;;;6.28;41.61;99049.91;107286;1270;137453;-77
2022/03/31 11:33:14;;;;;;;13.60;4.60;;;;;;;6.31;41.86;99056.91;107471;1270;96323;-75
2022/03/31 11:35:51;;;;;;;7.40;5.10;;;;;;;6.39;41.84;99059.56;107325;1271;138469;-75
2022/03/31 11:38:21;;;;;;;;;;;;;;;6.52;41.67;99059.81;107580;1270;112471;-79
2022/03/31 11:40:53;;;;;;;6.00;4.40;;;;;;;6.64;41.41;99063.52;107475;1270;123903;-73
2022/03/31 11:43:26;;;;;;;11.10;4.50;;;;;;;6.74;41.06;99058.36;107263;1270;107957;-74
2022/03/31 11:45:58;;;;;;;7.60;4.20;;;;;;;6.82;40.76;99058.05;107276;1270;96538;-73
2022/03/31 11:48:36;;;;;;;8.60;4.50;;;;;;;6.93;40.09;99054.70;107316;1271;137308;-74
2022/03/31 11:51:10;;;;;;;7.30;4.70;;;;;;;7.02;40.16;99056.80;107203;1270;113511;-73
2022/03/31 11:53:44;;;;;;;9.60;5.00;;;;;;;7.12;40.22;99055.93;107379;1270;137602;-76
2022/03/31 11:56:21;;;;;;;9.70;5.10;;;;;;;7.23;40.24;99055.00;107680;1270;108863;-74